createdAt,value
2019-01-04T00:01:42.609Z,11.20
2019-01-04T00:04:16.918Z,11.20
2019-01-04T00:06:45.691Z,11.10
2019-01-04T00:09:14.509Z,11.20
2019-01-04T00:11:43.294Z,11.20
2019-01-04T00:14:12.017Z,11.20
2019-01-04T00:16:40.744Z,11.20
2019-01-04T00:19:09.473Z,11.20
2019-01-04T00:21:38.440Z,11.20
2019-01-04T00:24:07.195Z,11.20
2019-01-04T00:26:35.901Z,11.20
2019-01-04T00:29:04.635Z,11.30
2019-01-04T00:31:33.361Z,11.20
2019-01-04T00:34:02.110Z,11.30
2019-01-04T00:36:30.833Z,11.20
2019-01-04T00:38:59.639Z,11.20
2019-01-04T00:41:28.359Z,11.30
2019-01-04T00:43:57.115Z,11.20
2019-01-04T00:46:26.101Z,11.20
2019-01-04T00:48:55.115Z,11.20
2019-01-04T00:51:23.834Z,11.20
2019-01-04T00:53:52.546Z,11.20
2019-01-04T00:56:47.684Z,11.30
2019-01-04T00:59:45.830Z,11.20
2019-01-04T01:02:32.113Z,11.20
2019-01-04T01:05:33.366Z,11.20
2019-01-04T01:08:49.777Z,11.20
2019-01-04T01:11:55.734Z,11.10
2019-01-04T01:15:09.021Z,11.10
2019-01-04T01:18:15.105Z,11.10
2019-01-04T01:21:24.519Z,11.20
2019-01-04T01:24:49.446Z,11.20
2019-01-04T01:27:54.634Z,11.20
2019-01-04T01:30:59.255Z,11.20
2019-01-04T01:34:11.052Z,11.20
2019-01-04T01:37:07.366Z,11.20
2019-01-04T01:40:27.126Z,11.20
2019-01-04T01:43:44.602Z,11.10
2019-01-04T01:46:46.645Z,11.10
2019-01-04T01:49:55.377Z,11.20
2019-01-04T01:52:34.878Z,11.20
2019-01-04T01:55:03.670Z,11.20
2019-01-04T01:57:32.670Z,11.20
2019-01-04T02:00:01.430Z,11.10
2019-01-04T02:02:30.194Z,11.10
2019-01-04T02:04:58.934Z,11.20
2019-01-04T02:07:27.682Z,11.10
2019-01-04T02:09:56.506Z,11.10
2019-01-04T02:12:25.287Z,11.20
2019-01-04T02:14:54.289Z,11.10
2019-01-04T02:17:23.034Z,11.10
2019-01-04T02:19:51.771Z,11.10
2019-01-04T02:22:20.501Z,11.20
2019-01-04T02:24:49.255Z,11.20
2019-01-04T02:27:17.987Z,11.10
2019-01-04T02:29:46.715Z,11.10
2019-01-04T02:32:15.511Z,11.10
2019-01-04T02:34:44.235Z,11.10
2019-01-04T02:37:12.995Z,11.10
2019-01-04T02:39:41.804Z,11.20
2019-01-04T02:42:10.652Z,11.10
2019-01-04T02:44:39.398Z,11.10
2019-01-04T02:47:08.130Z,11.10
2019-01-04T02:49:36.885Z,11.10
2019-01-04T02:52:05.652Z,11.10
2019-01-04T02:54:34.402Z,11.20
2019-01-04T02:57:03.159Z,11.00
2019-01-04T02:59:31.908Z,11.10
2019-01-04T03:02:00.647Z,11.20
2019-01-04T03:04:29.397Z,11.20
2019-01-04T03:06:58.168Z,11.20
2019-01-04T03:09:26.916Z,11.20
2019-01-04T03:11:55.675Z,11.10
2019-01-04T03:14:24.443Z,11.20
2019-01-04T03:16:53.182Z,11.10
2019-01-04T03:19:21.926Z,11.10
2019-01-04T03:21:50.691Z,11.10
2019-01-04T03:24:19.431Z,11.20
2019-01-04T03:26:48.196Z,11.20
2019-01-04T03:29:17.027Z,11.20
2019-01-04T03:31:45.820Z,11.20
2019-01-04T03:34:14.630Z,11.10
2019-01-04T03:36:43.395Z,11.10
2019-01-04T03:39:12.156Z,11.10
2019-01-04T03:41:40.912Z,11.10
2019-01-04T03:44:09.667Z,11.10
2019-01-04T03:46:38.411Z,11.00
2019-01-04T03:49:07.167Z,11.00
2019-01-04T03:51:35.946Z,11.10
2019-01-04T03:54:04.816Z,11.10
2019-01-04T03:56:33.551Z,11.10
2019-01-04T03:59:02.288Z,11.10
2019-01-04T04:01:31.034Z,11.10
2019-01-04T04:03:59.778Z,11.10
2019-01-04T04:06:28.530Z,11.10
2019-01-04T04:08:57.320Z,11.10
2019-01-04T04:11:26.075Z,11.10
2019-01-04T04:13:54.827Z,11.20
2019-01-04T04:16:23.639Z,11.10
2019-01-04T04:18:52.395Z,11.10
2019-01-04T04:21:21.442Z,11.10
2019-01-04T04:23:50.178Z,11.10
2019-01-04T04:26:18.928Z,11.00
2019-01-04T04:28:47.663Z,11.10
2019-01-04T04:31:16.413Z,11.10
2019-01-04T04:33:45.170Z,11.10
2019-01-04T04:36:13.915Z,11.00
2019-01-04T04:38:42.650Z,11.10
2019-01-04T04:41:11.403Z,11.10
2019-01-04T04:43:40.145Z,11.10
2019-01-04T04:46:09.164Z,11.10
2019-01-04T04:48:37.930Z,11.10
2019-01-04T04:51:06.700Z,11.10
2019-01-04T04:53:36.074Z,11.20
2019-01-04T04:56:04.927Z,11.10
2019-01-04T04:58:33.661Z,11.10
2019-01-04T05:01:02.399Z,11.10
2019-01-04T05:03:31.150Z,11.10
2019-01-04T05:06:00.156Z,11.10
2019-01-04T05:08:28.939Z,11.10
2019-01-04T05:10:57.711Z,11.00
2019-01-04T05:13:26.442Z,11.10
2019-01-04T05:15:55.191Z,11.00
2019-01-04T05:18:23.942Z,11.00
2019-01-04T05:20:52.734Z,11.10
2019-01-04T05:23:21.461Z,11.00
2019-01-04T05:25:50.694Z,11.10
2019-01-04T05:28:19.437Z,11.10
2019-01-04T05:30:48.166Z,11.00
2019-01-04T05:33:16.894Z,11.10
2019-01-04T05:35:45.630Z,11.20
2019-01-04T05:38:14.344Z,11.10
2019-01-04T05:40:43.179Z,11.10
2019-01-04T05:43:12.007Z,11.00
2019-01-04T05:45:40.742Z,11.00
2019-01-04T05:48:09.480Z,11.00
2019-01-04T05:50:38.216Z,11.00
2019-01-04T05:53:06.942Z,11.10
2019-01-04T05:55:35.690Z,11.10
2019-01-04T05:58:04.414Z,11.10
2019-01-04T06:00:33.141Z,11.10
2019-01-04T06:03:02.137Z,11.00
2019-01-04T06:05:30.859Z,11.00
2019-01-04T06:07:59.582Z,11.00
2019-01-04T06:10:28.345Z,11.00
2019-01-04T06:12:57.129Z,11.10
2019-01-04T06:15:26.102Z,11.00
2019-01-04T06:17:55.100Z,11.00
2019-01-04T06:20:23.839Z,11.00
2019-01-04T06:22:52.563Z,11.00
2019-01-04T06:25:21.534Z,11.00
2019-01-04T06:27:50.253Z,11.00
2019-01-04T06:30:18.971Z,11.00
2019-01-04T06:32:47.682Z,11.00
2019-01-04T06:35:16.446Z,11.00
2019-01-04T06:37:45.162Z,11.00
2019-01-04T06:40:13.885Z,10.90
2019-01-04T06:42:42.617Z,11.00
2019-01-04T06:45:11.591Z,11.00
2019-01-04T06:47:41.275Z,11.10
2019-01-04T06:50:10.017Z,11.00
2019-01-04T06:52:38.761Z,11.00
2019-01-04T06:55:55.475Z,10.90
2019-01-04T06:58:24.226Z,11.00
2019-01-04T07:00:52.949Z,11.00
2019-01-04T07:03:21.669Z,11.00
2019-01-04T07:05:50.763Z,11.00
2019-01-04T07:08:19.478Z,11.00
2019-01-04T07:10:48.218Z,10.90
2019-01-04T07:13:16.947Z,11.00
2019-01-04T07:15:45.670Z,11.00
2019-01-04T07:18:14.394Z,11.00
2019-01-04T07:20:43.124Z,11.00
2019-01-04T07:23:11.909Z,11.00
2019-01-04T07:25:40.625Z,10.90
2019-01-04T07:28:09.478Z,10.90
2019-01-04T07:30:38.226Z,11.00
2019-01-04T07:33:07.223Z,10.90
2019-01-04T07:35:35.980Z,11.00
2019-01-04T07:38:04.706Z,11.00
2019-01-04T07:40:33.439Z,10.90
2019-01-04T07:43:02.162Z,11.00
2019-01-04T07:45:31.169Z,10.90
2019-01-04T07:47:59.891Z,10.90
2019-01-04T07:50:28.631Z,11.00
2019-01-04T07:52:57.623Z,11.00
2019-01-04T07:55:26.350Z,11.00
2019-01-04T07:57:55.121Z,11.00
2019-01-04T08:00:23.957Z,11.00
2019-01-04T08:02:57.721Z,11.00
2019-01-04T08:05:29.742Z,11.00
2019-01-04T08:07:58.461Z,10.90
2019-01-04T08:10:27.209Z,10.90
2019-01-04T08:12:55.953Z,10.90
2019-01-04T08:15:24.740Z,11.00
2019-01-04T08:17:53.565Z,11.00
2019-01-04T08:20:22.331Z,11.00
2019-01-04T08:22:51.192Z,10.90
2019-01-04T08:25:19.992Z,11.00
2019-01-04T08:27:48.714Z,11.00
2019-01-04T08:30:18.879Z,11.00
2019-01-04T08:32:47.599Z,11.00
2019-01-04T08:35:16.442Z,10.90
2019-01-04T08:37:45.232Z,10.90
2019-01-04T08:40:14.430Z,10.90
2019-01-04T08:42:43.282Z,11.00
2019-01-04T08:45:15.512Z,11.00
2019-01-04T08:47:44.567Z,10.90
2019-01-04T08:50:14.355Z,11.00
2019-01-04T08:52:43.178Z,10.90
2019-01-04T08:55:31.385Z,11.00
2019-01-04T08:58:00.095Z,10.90
2019-01-04T09:00:28.827Z,11.00
2019-01-04T09:02:57.565Z,11.00
2019-01-04T09:05:26.311Z,10.90
2019-01-04T09:07:55.062Z,11.00
2019-01-04T09:10:23.927Z,11.00
2019-01-04T09:12:53.071Z,10.90
2019-01-04T09:15:21.799Z,11.00
2019-01-04T09:17:50.606Z,11.00
2019-01-04T09:20:19.648Z,11.00
2019-01-04T09:22:48.395Z,11.00
2019-01-04T09:25:17.122Z,10.90
2019-01-04T09:27:45.909Z,11.00
2019-01-04T09:30:15.364Z,11.00
2019-01-04T09:32:44.091Z,11.00
2019-01-04T09:35:12.836Z,11.00
2019-01-04T09:37:41.587Z,10.90
2019-01-04T09:40:11.550Z,10.90
2019-01-04T09:42:44.985Z,11.00
2019-01-04T09:45:13.808Z,11.00
2019-01-04T09:47:42.595Z,11.00
2019-01-04T09:50:11.474Z,11.00
2019-01-04T09:52:40.269Z,11.10
2019-01-04T09:55:09.071Z,11.00
2019-01-04T09:57:37.809Z,11.00
2019-01-04T10:00:09.886Z,11.10
2019-01-04T10:02:38.938Z,11.10
2019-01-04T10:05:08.292Z,11.00
2019-01-04T10:07:37.279Z,11.10
2019-01-04T10:10:07.926Z,11.10
2019-01-04T10:12:36.682Z,11.10
2019-01-04T10:15:06.276Z,11.00
2019-01-04T10:17:34.995Z,11.20
2019-01-04T10:20:03.990Z,11.10
2019-01-04T10:22:32.710Z,11.10
2019-01-04T10:25:01.515Z,11.10
2019-01-04T10:27:30.550Z,11.10
2019-01-04T10:29:59.375Z,11.10
2019-01-04T10:32:28.518Z,11.10
2019-01-04T10:34:57.266Z,11.10
2019-01-04T10:37:26.011Z,11.10
2019-01-04T10:39:54.727Z,11.10
2019-01-04T10:42:23.463Z,11.10
2019-01-04T10:44:52.264Z,11.00
2019-01-04T10:47:21.019Z,11.10
2019-01-04T10:49:49.742Z,11.10
2019-01-04T10:52:18.497Z,11.10
2019-01-04T10:54:47.223Z,11.10
2019-01-04T10:57:16.103Z,11.10
2019-01-04T10:59:44.915Z,11.10
2019-01-04T11:02:13.640Z,11.10
2019-01-04T11:04:42.362Z,11.10
2019-01-04T11:07:11.090Z,11.10
2019-01-04T11:09:39.899Z,11.20
2019-01-04T11:12:08.718Z,11.10
2019-01-04T11:14:37.443Z,11.10
2019-01-04T11:17:06.191Z,11.10
2019-01-04T11:19:34.915Z,11.20
2019-01-04T11:22:39.399Z,11.20
2019-01-04T11:25:43.994Z,11.10
2019-01-04T11:28:19.374Z,11.10
2019-01-04T11:31:13.286Z,11.10
2019-01-04T11:33:57.600Z,11.10
2019-01-04T11:36:55.049Z,11.10
2019-01-04T11:39:43.243Z,11.10
2019-01-04T11:42:57.730Z,11.10
2019-01-04T11:45:57.743Z,11.20
2019-01-04T11:48:36.458Z,11.10
2019-01-04T11:51:11.491Z,11.10
2019-01-04T11:53:40.354Z,11.10
2019-01-04T11:56:09.363Z,11.20
2019-01-04T11:58:38.343Z,11.10
2019-01-04T12:01:07.544Z,11.10
2019-01-04T12:03:36.526Z,11.20
2019-01-04T12:06:05.275Z,11.10
2019-01-04T12:08:34.290Z,11.20
2019-01-04T12:11:03.040Z,11.20
2019-01-04T12:13:31.751Z,11.20
2019-01-04T12:16:00.486Z,11.20
2019-01-04T12:18:29.605Z,11.20
2019-01-04T12:20:58.575Z,11.10
2019-01-04T12:23:27.341Z,11.30
2019-01-04T12:25:56.216Z,11.10
2019-01-04T12:28:24.946Z,11.10
2019-01-04T12:30:53.796Z,11.10
2019-01-04T12:33:22.559Z,11.10
2019-01-04T12:35:51.594Z,11.10
2019-01-04T12:38:20.578Z,11.10
2019-01-04T12:40:49.354Z,11.10
2019-01-04T12:43:18.091Z,11.10
2019-01-04T12:45:46.837Z,11.20
2019-01-04T12:48:15.588Z,11.10
2019-01-04T12:50:44.422Z,11.10
2019-01-04T12:53:13.149Z,11.10
2019-01-04T12:55:41.869Z,11.10
2019-01-04T12:58:10.580Z,11.20
2019-01-04T13:00:39.306Z,11.10
2019-01-04T13:03:08.038Z,11.10
2019-01-04T13:05:36.774Z,11.10
2019-01-04T13:08:05.506Z,11.10
2019-01-04T13:10:35.701Z,11.10
2019-01-04T13:13:04.762Z,11.20
2019-01-04T13:15:33.491Z,11.20
2019-01-04T13:18:02.235Z,11.20
2019-01-04T13:20:31.475Z,11.00
2019-01-04T13:23:00.337Z,11.10
2019-01-04T13:25:29.093Z,11.10
2019-01-04T13:27:58.335Z,11.10
2019-01-04T13:30:27.307Z,11.20
2019-01-04T13:32:56.178Z,11.10
2019-01-04T13:35:24.896Z,11.10
2019-01-04T13:37:53.621Z,11.10
2019-01-04T13:40:22.348Z,11.20
2019-01-04T13:42:53.499Z,11.10
2019-01-04T13:45:22.239Z,11.10
2019-01-04T13:47:50.957Z,11.10
2019-01-04T13:50:19.679Z,11.10
2019-01-04T13:52:48.579Z,11.00
2019-01-04T13:55:17.323Z,11.10
2019-01-04T13:57:46.139Z,11.20
2019-01-04T14:00:15.154Z,11.10
2019-01-04T14:02:43.994Z,11.20
2019-01-04T14:05:15.787Z,11.20
2019-01-04T14:07:44.760Z,11.10
2019-01-04T14:10:13.514Z,11.20
2019-01-04T14:12:42.347Z,11.20
2019-01-04T14:15:11.064Z,11.10
2019-01-04T14:17:39.783Z,11.20
2019-01-04T14:20:08.599Z,11.10
2019-01-04T14:22:38.531Z,11.20
2019-01-04T14:25:08.143Z,11.10
2019-01-04T14:27:37.114Z,11.10
2019-01-04T14:30:07.618Z,11.30
2019-01-04T14:32:36.434Z,11.20
2019-01-04T14:35:05.345Z,11.10
2019-01-04T14:37:34.109Z,11.10
2019-01-04T14:40:03.014Z,11.10
2019-01-04T14:42:31.727Z,11.10
2019-01-04T14:45:00.462Z,11.10
2019-01-04T14:47:29.182Z,11.20
2019-01-04T14:49:57.985Z,11.10
2019-01-04T14:52:26.715Z,11.10
2019-01-04T14:54:55.430Z,11.10
2019-01-04T14:57:24.239Z,11.10
2019-01-04T14:59:52.967Z,11.10
2019-01-04T15:02:21.707Z,11.10
2019-01-04T15:04:50.602Z,11.10
2019-01-04T15:07:19.334Z,11.10
2019-01-04T15:09:48.047Z,11.20
2019-01-04T15:12:16.794Z,11.60
2019-01-04T15:14:45.539Z,11.40
2019-01-04T15:17:14.383Z,11.20
2019-01-04T15:19:43.135Z,11.20
2019-01-04T15:22:11.928Z,11.10
2019-01-04T15:24:40.695Z,11.10
2019-01-04T15:27:09.524Z,11.10
2019-01-04T15:29:38.399Z,11.00
2019-01-04T15:32:07.190Z,11.10
2019-01-04T15:34:35.924Z,11.00
2019-01-04T15:37:04.738Z,11.00
2019-01-04T15:39:33.496Z,11.10
2019-01-04T15:42:02.226Z,11.00
2019-01-04T15:44:30.978Z,11.00
2019-01-04T15:46:59.983Z,11.00
2019-01-04T15:49:28.704Z,11.00
2019-01-04T15:51:57.456Z,11.00
2019-01-04T15:54:26.203Z,11.10
2019-01-04T15:56:54.938Z,11.00
2019-01-04T15:59:23.677Z,10.90
2019-01-04T16:01:52.451Z,11.00
2019-01-04T16:04:21.189Z,11.00
2019-01-04T16:09:22.878Z,11.00
2019-01-04T16:11:51.677Z,11.00
2019-01-04T16:14:20.795Z,11.00
2019-01-04T16:16:49.521Z,11.00
2019-01-04T16:19:19.166Z,11.00
2019-01-04T16:21:48.719Z,11.00
2019-01-04T16:24:17.553Z,11.10
2019-01-04T16:26:46.309Z,11.00
2019-01-04T16:29:15.195Z,11.00
2019-01-04T16:31:43.922Z,11.00
2019-01-04T16:34:12.735Z,11.00
2019-01-04T16:36:41.762Z,11.00
2019-01-04T16:39:10.641Z,11.00
2019-01-04T16:41:39.385Z,11.00
2019-01-04T16:44:08.147Z,11.10
2019-01-04T16:46:36.861Z,11.00
2019-01-04T16:49:05.608Z,11.00
2019-01-04T16:51:34.565Z,11.00
2019-01-04T16:54:03.366Z,11.00
2019-01-04T16:56:32.353Z,11.00
2019-01-04T16:59:01.167Z,11.10
2019-01-04T17:01:29.959Z,11.00
2019-01-04T17:03:58.697Z,11.10
2019-01-04T17:06:27.427Z,11.00
2019-01-04T17:08:56.150Z,11.10
2019-01-04T17:11:24.903Z,11.10
2019-01-04T17:13:53.621Z,11.00
2019-01-04T17:16:22.374Z,11.00
2019-01-04T17:18:51.152Z,10.90
2019-01-04T17:21:19.894Z,10.90
2019-01-04T17:23:48.666Z,10.90
2019-01-04T17:26:17.398Z,11.00
2019-01-04T17:28:46.125Z,11.10
2019-01-04T17:31:14.897Z,11.00
2019-01-04T17:33:44.048Z,11.00
2019-01-04T17:36:12.820Z,11.00
2019-01-04T17:38:41.575Z,11.00
2019-01-04T17:41:10.385Z,11.00
2019-01-04T17:43:39.125Z,11.00
2019-01-04T17:46:07.865Z,11.00
2019-01-04T17:48:36.943Z,11.00
2019-01-04T17:51:05.673Z,11.00
2019-01-04T17:53:34.442Z,11.00
2019-01-04T17:56:03.260Z,10.90
2019-01-04T17:58:31.999Z,10.90
2019-01-04T18:01:00.788Z,10.90
2019-01-04T18:03:29.619Z,11.00
2019-01-04T18:05:58.743Z,10.90
2019-01-04T18:08:27.500Z,11.00
2019-01-04T18:10:56.656Z,10.90
2019-01-04T18:13:25.574Z,10.90
2019-01-04T18:15:54.351Z,11.00
2019-01-04T18:18:23.116Z,11.00
2019-01-04T18:20:51.887Z,10.90
2019-01-04T18:23:20.732Z,11.00
2019-01-04T18:25:49.554Z,11.00
2019-01-04T18:28:18.303Z,10.90
2019-01-04T18:30:47.369Z,11.00
2019-01-04T18:33:16.407Z,11.00
2019-01-04T18:35:45.175Z,11.10
2019-01-04T18:38:16.538Z,10.90
2019-01-04T18:40:45.314Z,10.90
2019-01-04T18:43:14.359Z,10.90
2019-01-04T18:45:43.096Z,10.90
2019-01-04T18:48:11.851Z,11.00
2019-01-04T18:50:40.662Z,11.00
2019-01-04T18:53:09.752Z,11.00
2019-01-04T18:55:38.630Z,11.00
2019-01-04T18:58:07.420Z,11.10
2019-01-04T19:00:36.263Z,11.00
2019-01-04T19:03:05.274Z,11.00
2019-01-04T19:05:34.150Z,11.00
2019-01-04T19:08:02.904Z,10.90
2019-01-04T19:10:31.664Z,11.00
2019-01-04T19:13:00.565Z,10.90
2019-01-04T19:15:29.299Z,10.90
2019-01-04T19:17:58.040Z,11.00
2019-01-04T19:20:26.807Z,11.00
2019-01-04T19:22:55.669Z,10.90
2019-01-04T19:25:24.508Z,11.00
2019-01-04T19:27:53.363Z,10.90
2019-01-04T19:30:22.238Z,10.90
2019-01-04T19:32:51.013Z,11.00
2019-01-04T19:35:19.751Z,10.90
2019-01-04T19:37:48.495Z,10.90
2019-01-04T19:40:17.282Z,11.00
2019-01-04T19:42:46.330Z,10.90
2019-01-04T19:45:15.161Z,10.90
2019-01-04T19:47:43.895Z,10.90
2019-01-04T19:50:20.684Z,10.80
2019-01-04T19:52:49.747Z,11.00
2019-01-04T19:55:18.683Z,10.90
2019-01-04T19:57:47.528Z,10.90
2019-01-04T20:00:16.283Z,10.90
2019-01-04T20:02:45.028Z,10.90
2019-01-04T20:05:13.769Z,10.90
2019-01-04T20:08:21.436Z,10.90
2019-01-04T20:11:47.808Z,10.90
2019-01-04T20:15:14.294Z,10.90
2019-01-04T20:18:03.774Z,10.90
2019-01-04T20:20:51.638Z,10.90
2019-01-04T20:23:48.387Z,10.90
2019-01-04T20:26:36.263Z,11.00
2019-01-04T20:29:22.559Z,10.90
2019-01-04T20:32:03.930Z,10.90
2019-01-04T20:34:57.843Z,10.90
2019-01-04T20:37:42.022Z,10.90
2019-01-04T20:40:28.585Z,11.00
2019-01-04T20:43:19.515Z,10.90
2019-01-04T20:46:06.143Z,10.90
2019-01-04T20:48:52.943Z,10.90
2019-01-04T20:51:47.875Z,11.00
2019-01-04T20:54:29.899Z,10.90
2019-01-04T20:57:16.560Z,10.90
2019-01-04T21:00:16.722Z,10.90
2019-01-04T21:03:11.206Z,10.90
2019-01-04T21:05:59.295Z,11.00
2019-01-04T21:08:45.662Z,10.90
2019-01-04T21:11:38.832Z,10.90
2019-01-04T21:14:25.280Z,11.00
2019-01-04T21:17:11.941Z,10.90
2019-01-04T21:20:08.955Z,10.90
2019-01-04T21:23:09.243Z,10.90
2019-01-04T21:26:03.238Z,10.90
2019-01-04T21:28:51.074Z,10.90
2019-01-04T21:31:41.902Z,10.90
2019-01-04T21:34:28.439Z,11.00
2019-01-04T21:37:10.623Z,10.90
2019-01-04T21:39:57.428Z,10.90
2019-01-04T21:42:43.759Z,11.00
2019-01-04T21:45:30.279Z,10.90
2019-01-04T21:48:18.354Z,10.90
2019-01-04T21:51:12.894Z,10.90
2019-01-04T21:54:04.294Z,10.90
2019-01-04T21:56:50.715Z,10.90
2019-01-04T21:59:42.083Z,10.90
2019-01-04T22:02:32.889Z,10.90
2019-01-04T22:05:19.544Z,10.90
2019-01-04T22:10:41.617Z,10.90
2019-01-04T22:13:25.429Z,10.90
2019-01-04T22:16:06.764Z,10.80
2019-01-04T22:18:57.615Z,10.90
2019-01-04T22:21:50.472Z,10.90
2019-01-04T22:24:47.166Z,10.90
2019-01-04T22:27:43.406Z,10.90
2019-01-04T22:30:34.172Z,10.80
2019-01-04T22:33:37.025Z,10.90
2019-01-04T22:36:16.745Z,10.80
2019-01-04T22:39:03.126Z,10.90
2019-01-04T22:41:50.354Z,10.90
2019-01-04T22:44:31.970Z,10.80
2019-01-04T22:47:19.872Z,10.80
2019-01-04T22:50:07.864Z,10.90
2019-01-04T22:53:06.901Z,10.80
2019-01-04T22:55:53.385Z,10.80
2019-01-04T22:58:40.894Z,10.90
2019-01-04T23:01:27.595Z,10.90
2019-01-04T23:04:15.515Z,10.90
2019-01-04T23:07:06.375Z,10.90
2019-01-04T23:09:59.819Z,11.00
2019-01-04T23:12:46.384Z,10.90
2019-01-04T23:15:33.133Z,10.90
2019-01-04T23:18:21.133Z,10.90
2019-01-04T23:21:10.623Z,11.00
2019-01-04T23:24:07.410Z,10.90
2019-01-04T23:26:51.518Z,10.90
2019-01-04T23:29:48.498Z,10.80
2019-01-04T23:32:34.826Z,10.90
2019-01-04T23:35:21.599Z,10.90
2019-01-04T23:38:03.306Z,10.80
2019-01-04T23:40:50.084Z,10.90
2019-01-04T23:43:50.215Z,10.90
2019-01-04T23:46:44.010Z,10.90
2019-01-04T23:49:28.402Z,10.90
2019-01-04T23:52:16.400Z,10.90
2019-01-04T23:55:02.820Z,10.90
2019-01-04T23:57:49.370Z,10.90
